Columbus, Ohio
Traffic Map
Current Weather Conditions
Columbus, Ohio
Overcast
Overcast
14°
Feels Like: 14°
Wind Chill: 14° Ceiling: 4400
Heat Index: 14° Visibility: 10mi
Dew Point: Wind: 13mph
Humidity: 59% Direction: 130° (SE)
Pressure: 30.17in Gusts: 22mph
Raw Report DataKCMH 232351Z 13011G19KT 10SM BKN044 OVC060 14/06 A3017 RMK AO2 RAE09 SLP216 P0001 60006 T01390061 10200 20128 58008
Traffic Incident Summary
Active as of:
Severity:
Category:
InformationThere was an issue retrieving the traffic information for this location. Please try a different location or try again shortly.
Advertisements